Redfield, Arkansas
Current Conditions -  °F | °C
As of 9:53 AM on Sunday 23 Nov 2014 (Local Time) from KLIT Reporting Station
Light Rain Light Rain  
Wind Chill: 60°   Ceiling: 600
Heat Index: 60°   Visibility: 3mi
Dew Point: 57°   Wind: 8mph
Humidity: 90%   Direction: 160°SSE
Pressure: 29.56"   Gusts: NA
Location:  34.45°N, 92.18°W
Report Text: KLIT 231553Z 16007KT 3SM -RA BR BKN006 OVC010 16/14 A2956 RMK AO2 CIG 004V009 SLP011 P0012 T01560139
Loading
Personal Weather Stations






























Interactive Weather Map New forecast layout! Learn more

10-Day Weather Forecast

Advertisements
Track Severe Weather on mobile